ACA772 CYYZ-KBOS
Flight info
| Callsign | ACA772 |
|---|---|
| Flight time | 1h 7m |
| Altitude | 37000 |
| Route | KEPTA3 BMPAH DCT AEVON DCT HANKK DCT PONCT JFUND2 |
| Aircraft | A320/M-SDE3FGHIRWY/LB1 |
Departure
| Time | 2026-05-04 01:40 |
|---|---|
| Airport | Toronto Pearson International Airport (CYYZ) |
Arrival
| Time | 2026-05-04 02:47 |
|---|---|
| Airport | Boston Logan International Airport (KBOS) |
| Time | Latitude | Longitude | Altitude | Speed | Heading |
|---|---|---|---|---|---|
| 2026-05-04 01:21 | 43.67983 | -79.61259 | 564 ft | 0 kts | 53° |
| 2026-05-04 01:29 | 43.67974 | -79.61277 | 570 ft | 4 kts | 56° |
| 2026-05-04 01:30 | 43.67960 | -79.61309 | 563 ft | 4 kts | 68° |
| 2026-05-04 01:30 | 43.67955 | -79.61342 | 568 ft | 4 kts | 109° |
| 2026-05-04 01:30 | 43.67962 | -79.61357 | 569 ft | 0 kts | 160° |
| 2026-05-04 01:33 | 43.67957 | -79.61354 | 568 ft | 3 kts | 160° |
| 2026-05-04 01:33 | 43.67930 | -79.61349 | 571 ft | 8 kts | 180° |
| 2026-05-04 01:33 | 43.67855 | -79.61382 | 566 ft | 13 kts | 202° |
| 2026-05-04 01:33 | 43.67783 | -79.61461 | 565 ft | 14 kts | 226° |
| 2026-05-04 01:34 | 43.67703 | -79.61577 | 563 ft | 18 kts | 226° |
| 2026-05-04 01:34 | 43.67634 | -79.61705 | 565 ft | 15 kts | 276° |
| 2026-05-04 01:34 | 43.67706 | -79.61821 | 563 ft | 17 kts | 316° |
| 2026-05-04 01:34 | 43.67788 | -79.61928 | 563 ft | 16 kts | 317° |
| 2026-05-04 01:35 | 43.67867 | -79.62030 | 562 ft | 17 kts | 319° |
| 2026-05-04 01:35 | 43.67968 | -79.62100 | 568 ft | 15 kts | 328° |
| 2026-05-04 01:35 | 43.68043 | -79.62192 | 562 ft | 13 kts | 317° |
| 2026-05-04 01:35 | 43.68106 | -79.62275 | 562 ft | 12 kts | 316° |
| 2026-05-04 01:36 | 43.68194 | -79.62389 | 565 ft | 21 kts | 316° |
| 2026-05-04 01:36 | 43.68303 | -79.62519 | 562 ft | 21 kts | 317° |
| 2026-05-04 01:36 | 43.68409 | -79.62658 | 568 ft | 22 kts | 316° |
| 2026-05-04 01:36 | 43.68522 | -79.62807 | 564 ft | 23 kts | 316° |
| 2026-05-04 01:37 | 43.68643 | -79.62965 | 565 ft | 25 kts | 316° |
| 2026-05-04 01:37 | 43.68770 | -79.63131 | 567 ft | 26 kts | 316° |
| 2026-05-04 01:37 | 43.68903 | -79.63305 | 563 ft | 26 kts | 316° |
| 2026-05-04 01:37 | 43.69033 | -79.63475 | 569 ft | 23 kts | 317° |
| 2026-05-04 01:38 | 43.69111 | -79.63531 | 567 ft | 9 kts | 15° |
| 2026-05-04 01:38 | 43.69154 | -79.63480 | 569 ft | 9 kts | 47° |
| 2026-05-04 01:38 | 43.69215 | -79.63426 | 569 ft | 12 kts | 10° |
| 2026-05-04 01:38 | 43.69299 | -79.63420 | 565 ft | 9 kts | 5° |
| 2026-05-04 01:39 | 43.69337 | -79.63419 | 562 ft | 4 kts | 356° |
| 2026-05-04 01:39 | 43.69370 | -79.63440 | 562 ft | 11 kts | 325° |
| 2026-05-04 01:39 | 43.69408 | -79.63523 | 562 ft | 10 kts | 243° |
| 2026-05-04 01:39 | 43.69348 | -79.63606 | 560 ft | 20 kts | 225° |
| 2026-05-04 01:40 | 43.69075 | -79.63997 | 568 ft | 89 kts | 226° |
| 2026-05-04 01:40 | 43.68510 | -79.64815 | 572 ft | 144 kts | 226° |
| 2026-05-04 01:40 | 43.67745 | -79.65905 | 884 ft | 160 kts | 225° |
| 2026-05-04 01:40 | 43.67017 | -79.67038 | 1704 ft | 155 kts | 231° |
| 2026-05-04 01:41 | 43.66354 | -79.68176 | 2532 ft | 148 kts | 235° |
| 2026-05-04 01:41 | 43.65733 | -79.69272 | 3272 ft | 142 kts | 235° |
| 2026-05-04 01:41 | 43.65074 | -79.70341 | 3724 ft | 154 kts | 235° |
| 2026-05-04 01:41 | 43.64329 | -79.71569 | 3989 ft | 179 kts | 235° |
| 2026-05-04 01:42 | 43.63484 | -79.72986 | 4360 ft | 203 kts | 235° |
| 2026-05-04 01:42 | 43.62547 | -79.74562 | 4763 ft | 226 kts | 234° |
| 2026-05-04 01:42 | 43.61260 | -79.75915 | 5299 ft | 246 kts | 208° |
| 2026-05-04 01:42 | 43.59507 | -79.76258 | 5985 ft | 268 kts | 182° |
| 2026-05-04 01:43 | 43.57693 | -79.75366 | 6817 ft | 291 kts | 152° |
| 2026-05-04 01:43 | 43.56305 | -79.73228 | 7589 ft | 308 kts | 127° |
| 2026-05-04 01:43 | 43.55177 | -79.70694 | 8452 ft | 312 kts | 124° |
| 2026-05-04 01:43 | 43.54089 | -79.68084 | 9292 ft | 315 kts | 122° |
| 2026-05-04 01:44 | 43.53008 | -79.65435 | 10077 ft | 319 kts | 122° |
| 2026-05-04 01:44 | 43.51978 | -79.62647 | 10472 ft | 339 kts | 113° |
| 2026-05-04 01:44 | 43.51308 | -79.59408 | 10793 ft | 359 kts | 99° |
| 2026-05-04 01:44 | 43.51136 | -79.55953 | 11450 ft | 365 kts | 87° |
| 2026-05-04 01:45 | 43.51471 | -79.52490 | 12190 ft | 366 kts | 75° |
| 2026-05-04 01:45 | 43.52120 | -79.49077 | 12959 ft | 369 kts | 73° |
| 2026-05-04 01:45 | 43.52523 | -79.42059 | 14345 ft | 376 kts | 97° |
| 2026-05-04 01:46 | 43.51950 | -79.38529 | 14945 ft | 379 kts | 110° |
| 2026-05-04 01:46 | 43.50960 | -79.35135 | 15556 ft | 383 kts | 114° |
| 2026-05-04 01:46 | 43.49920 | -79.31738 | 16167 ft | 386 kts | 114° |
| 2026-05-04 01:46 | 43.48872 | -79.28307 | 16775 ft | 390 kts | 114° |
| 2026-05-04 01:47 | 43.47816 | -79.24839 | 17369 ft | 394 kts | 114° |
| 2026-05-04 01:47 | 43.46751 | -79.21345 | 17971 ft | 398 kts | 114° |
| 2026-05-04 01:47 | 43.45670 | -79.17814 | 18507 ft | 402 kts | 114° |
| 2026-05-04 01:47 | 43.44577 | -79.14250 | 19026 ft | 405 kts | 114° |
| 2026-05-04 01:48 | 43.43472 | -79.10659 | 19551 ft | 409 kts | 114° |
| 2026-05-04 01:48 | 43.42354 | -79.07042 | 20074 ft | 412 kts | 114° |
| 2026-05-04 01:48 | 43.41223 | -79.03398 | 20606 ft | 416 kts | 114° |
| 2026-05-04 01:48 | 43.40079 | -78.99720 | 21126 ft | 419 kts | 114° |
| 2026-05-04 01:49 | 43.38927 | -78.96016 | 21638 ft | 423 kts | 114° |
| 2026-05-04 01:49 | 43.37763 | -78.92285 | 22157 ft | 426 kts | 114° |
| 2026-05-04 01:49 | 43.36587 | -78.88522 | 22679 ft | 430 kts | 114° |
| 2026-05-04 01:49 | 43.35402 | -78.84733 | 23180 ft | 433 kts | 114° |
| 2026-05-04 01:50 | 43.34208 | -78.80917 | 23625 ft | 437 kts | 114° |
| 2026-05-04 01:50 | 43.33020 | -78.77121 | 24030 ft | 440 kts | 113° |
| 2026-05-04 01:50 | 43.31807 | -78.73245 | 24439 ft | 442 kts | 113° |
| 2026-05-04 01:50 | 43.30592 | -78.69363 | 24843 ft | 445 kts | 113° |
| 2026-05-04 01:51 | 43.29363 | -78.65451 | 25254 ft | 447 kts | 113° |
| 2026-05-04 01:51 | 43.28123 | -78.61527 | 25659 ft | 449 kts | 113° |
| 2026-05-04 01:51 | 43.26874 | -78.57590 | 26040 ft | 451 kts | 113° |
| 2026-05-04 01:51 | 43.25618 | -78.53626 | 26408 ft | 453 kts | 113° |
| 2026-05-04 01:52 | 43.24364 | -78.49646 | 26767 ft | 456 kts | 113° |
| 2026-05-04 01:52 | 43.23103 | -78.45652 | 27146 ft | 458 kts | 113° |
| 2026-05-04 01:52 | 43.21834 | -78.41641 | 27511 ft | 460 kts | 113° |
| 2026-05-04 01:52 | 43.20553 | -78.37607 | 27869 ft | 462 kts | 113° |
| 2026-05-04 01:53 | 43.19178 | -78.33618 | 28211 ft | 464 kts | 120° |
| 2026-05-04 01:53 | 43.17414 | -78.29911 | 28552 ft | 465 kts | 129° |
| 2026-05-04 01:53 | 43.15360 | -78.26471 | 28882 ft | 467 kts | 131° |
| 2026-05-04 01:53 | 43.13294 | -78.23034 | 29206 ft | 469 kts | 130° |
| 2026-05-04 01:54 | 43.11220 | -78.19569 | 29518 ft | 471 kts | 130° |
| 2026-05-04 01:54 | 43.09165 | -78.16126 | 29825 ft | 473 kts | 130° |
| 2026-05-04 01:54 | 43.07081 | -78.12634 | 30099 ft | 475 kts | 130° |
| 2026-05-04 01:54 | 43.04989 | -78.09124 | 30343 ft | 477 kts | 130° |
| 2026-05-04 01:55 | 43.02883 | -78.05599 | 30584 ft | 479 kts | 130° |
| 2026-05-04 01:55 | 43.00767 | -78.02073 | 30825 ft | 481 kts | 130° |
| 2026-05-04 01:55 | 42.98640 | -77.98539 | 31045 ft | 482 kts | 131° |
| 2026-05-04 01:55 | 42.96507 | -77.95007 | 31303 ft | 483 kts | 131° |
| 2026-05-04 01:56 | 42.94500 | -77.91323 | 31599 ft | 484 kts | 123° |
| 2026-05-04 01:56 | 42.92914 | -77.87263 | 31905 ft | 484 kts | 113° |
| 2026-05-04 01:56 | 42.91807 | -77.82933 | 32211 ft | 484 kts | 103° |
| 2026-05-04 01:56 | 42.91195 | -77.78429 | 32504 ft | 482 kts | 94° |
| 2026-05-04 01:57 | 42.91025 | -77.73875 | 32802 ft | 481 kts | 90° |
| 2026-05-04 01:57 | 42.90926 | -77.69320 | 33113 ft | 480 kts | 90° |
| 2026-05-04 01:57 | 42.90821 | -77.64768 | 33427 ft | 480 kts | 90° |
| 2026-05-04 01:57 | 42.90708 | -77.60222 | 33739 ft | 480 kts | 90° |
| 2026-05-04 01:58 | 42.90592 | -77.55678 | 34021 ft | 479 kts | 90° |
| 2026-05-04 01:58 | 42.90473 | -77.51133 | 34254 ft | 480 kts | 91° |
| 2026-05-04 01:58 | 42.90352 | -77.46581 | 34463 ft | 480 kts | 91° |
| 2026-05-04 01:58 | 42.90231 | -77.42032 | 34669 ft | 481 kts | 91° |
| 2026-05-04 01:59 | 42.90109 | -77.37466 | 34867 ft | 481 kts | 91° |
| 2026-05-04 01:59 | 42.89984 | -77.32958 | 35065 ft | 482 kts | 91° |
| 2026-05-04 01:59 | 42.89855 | -77.28329 | 35255 ft | 483 kts | 91° |
| 2026-05-04 01:59 | 42.89731 | -77.23807 | 35442 ft | 483 kts | 91° |
| 2026-05-04 02:00 | 42.89607 | -77.19229 | 35603 ft | 484 kts | 91° |
| 2026-05-04 02:00 | 42.89479 | -77.14621 | 35759 ft | 486 kts | 91° |
| 2026-05-04 02:00 | 42.89344 | -77.10012 | 35926 ft | 486 kts | 91° |
| 2026-05-04 02:00 | 42.89203 | -77.05406 | 36103 ft | 487 kts | 91° |
| 2026-05-04 02:01 | 42.89056 | -77.00790 | 36304 ft | 487 kts | 91° |
| 2026-05-04 02:01 | 42.88907 | -76.96165 | 36494 ft | 487 kts | 91° |
| 2026-05-04 02:01 | 42.88760 | -76.91552 | 36675 ft | 487 kts | 92° |
| 2026-05-04 02:01 | 42.88613 | -76.86938 | 36845 ft | 487 kts | 92° |
| 2026-05-04 02:02 | 42.88316 | -76.77718 | 36911 ft | 486 kts | 92° |
| 2026-05-04 02:02 | 42.88010 | -76.68535 | 36912 ft | 485 kts | 92° |
| 2026-05-04 02:03 | 42.87696 | -76.59402 | 36920 ft | 485 kts | 92° |
| 2026-05-04 02:03 | 42.87371 | -76.50209 | 36919 ft | 485 kts | 92° |
| 2026-05-04 02:04 | 42.87037 | -76.41021 | 36919 ft | 485 kts | 92° |
| 2026-05-04 02:04 | 42.86702 | -76.31830 | 36916 ft | 486 kts | 92° |
| 2026-05-04 02:05 | 42.86363 | -76.22628 | 36921 ft | 486 kts | 92° |
| 2026-05-04 02:05 | 42.86012 | -76.13431 | 36922 ft | 486 kts | 92° |
| 2026-05-04 02:06 | 42.85714 | -76.05784 | 36931 ft | 486 kts | 93° |
| 2026-05-04 02:06 | 42.85351 | -75.96583 | 36931 ft | 486 kts | 93° |
| 2026-05-04 02:07 | 42.84981 | -75.87389 | 36953 ft | 486 kts | 93° |
| 2026-05-04 02:07 | 42.84599 | -75.78196 | 36957 ft | 486 kts | 93° |
| 2026-05-04 02:08 | 42.84207 | -75.69008 | 36956 ft | 486 kts | 93° |
| 2026-05-04 02:08 | 42.83816 | -75.59819 | 36960 ft | 486 kts | 93° |
| 2026-05-04 02:09 | 42.83419 | -75.50689 | 36964 ft | 486 kts | 94° |
| 2026-05-04 02:09 | 42.83010 | -75.41502 | 36958 ft | 486 kts | 94° |
| 2026-05-04 02:10 | 42.82594 | -75.32313 | 36958 ft | 486 kts | 94° |
| 2026-05-04 02:10 | 42.82171 | -75.23130 | 36963 ft | 486 kts | 94° |
| 2026-05-04 02:11 | 42.81747 | -75.13939 | 36966 ft | 486 kts | 94° |
| 2026-05-04 02:11 | 42.81309 | -75.04739 | 36965 ft | 486 kts | 94° |
| 2026-05-04 02:12 | 42.80854 | -74.95543 | 36959 ft | 487 kts | 94° |
| 2026-05-04 02:12 | 42.80398 | -74.86333 | 36959 ft | 487 kts | 94° |
| 2026-05-04 02:13 | 42.79939 | -74.77187 | 36959 ft | 487 kts | 94° |
| 2026-05-04 02:13 | 42.79470 | -74.67973 | 36960 ft | 488 kts | 95° |
| 2026-05-04 02:14 | 42.78993 | -74.58767 | 36967 ft | 487 kts | 94° |
| 2026-05-04 02:14 | 42.78513 | -74.49570 | 36960 ft | 487 kts | 95° |
| 2026-05-04 02:15 | 42.78024 | -74.40369 | 36958 ft | 487 kts | 95° |
| 2026-05-04 02:15 | 42.77524 | -74.31175 | 36956 ft | 487 kts | 95° |
| 2026-05-04 02:16 | 42.77016 | -74.21991 | 36952 ft | 487 kts | 95° |
| 2026-05-04 02:16 | 42.76503 | -74.12782 | 36950 ft | 487 kts | 95° |
| 2026-05-04 02:17 | 42.75983 | -74.03655 | 36942 ft | 487 kts | 95° |
| 2026-05-04 02:17 | 42.75457 | -73.94472 | 36937 ft | 487 kts | 95° |
| 2026-05-04 02:18 | 42.74924 | -73.85269 | 36950 ft | 487 kts | 95° |
| 2026-05-04 02:18 | 42.74499 | -73.76061 | 36952 ft | 488 kts | 92° |
| 2026-05-04 02:19 | 42.74463 | -73.66834 | 36945 ft | 488 kts | 89° |
| 2026-05-04 02:19 | 42.74500 | -73.62177 | 36641 ft | 492 kts | 89° |
| 2026-05-04 02:19 | 42.74526 | -73.57520 | 35981 ft | 492 kts | 90° |
| 2026-05-04 02:20 | 42.74527 | -73.52869 | 35403 ft | 489 kts | 90° |
| 2026-05-04 02:20 | 42.74501 | -73.48259 | 34827 ft | 487 kts | 90° |
| 2026-05-04 02:20 | 42.74455 | -73.43659 | 34237 ft | 485 kts | 90° |
| 2026-05-04 02:20 | 42.74398 | -73.39145 | 33611 ft | 483 kts | 90° |
| 2026-05-04 02:21 | 42.74337 | -73.34593 | 33030 ft | 478 kts | 90° |
| 2026-05-04 02:21 | 42.74277 | -73.30082 | 32455 ft | 474 kts | 90° |
| 2026-05-04 02:21 | 42.74224 | -73.25609 | 31895 ft | 470 kts | 90° |
| 2026-05-04 02:21 | 42.74175 | -73.21177 | 31340 ft | 467 kts | 89° |
| 2026-05-04 02:22 | 42.74126 | -73.16777 | 30790 ft | 464 kts | 89° |
| 2026-05-04 02:22 | 42.74064 | -73.12413 | 30290 ft | 460 kts | 91° |
| 2026-05-04 02:22 | 42.73686 | -73.08109 | 29776 ft | 456 kts | 97° |
| 2026-05-04 02:22 | 42.73197 | -73.03860 | 29297 ft | 451 kts | 97° |
| 2026-05-04 02:23 | 42.72715 | -72.99682 | 28836 ft | 445 kts | 97° |
| 2026-05-04 02:23 | 42.72239 | -72.95551 | 28395 ft | 439 kts | 97° |
| 2026-05-04 02:23 | 42.71767 | -72.91467 | 27959 ft | 435 kts | 98° |
| 2026-05-04 02:23 | 42.71300 | -72.87429 | 27522 ft | 430 kts | 97° |
| 2026-05-04 02:24 | 42.70836 | -72.83428 | 27084 ft | 426 kts | 97° |
| 2026-05-04 02:24 | 42.70373 | -72.79471 | 26655 ft | 422 kts | 98° |
| 2026-05-04 02:24 | 42.69917 | -72.75594 | 26212 ft | 419 kts | 97° |
| 2026-05-04 02:24 | 42.69457 | -72.71703 | 25776 ft | 416 kts | 97° |
| 2026-05-04 02:25 | 42.68997 | -72.67831 | 25317 ft | 413 kts | 97° |
| 2026-05-04 02:25 | 42.68539 | -72.63983 | 24869 ft | 411 kts | 97° |
| 2026-05-04 02:25 | 42.68080 | -72.60150 | 24409 ft | 409 kts | 97° |
| 2026-05-04 02:25 | 42.67618 | -72.56342 | 23933 ft | 408 kts | 97° |
| 2026-05-04 02:26 | 42.67154 | -72.52535 | 23462 ft | 406 kts | 97° |
| 2026-05-04 02:26 | 42.66694 | -72.48759 | 22947 ft | 404 kts | 97° |
| 2026-05-04 02:26 | 42.66236 | -72.45004 | 22501 ft | 401 kts | 97° |
| 2026-05-04 02:26 | 42.65777 | -72.41277 | 22044 ft | 398 kts | 97° |
| 2026-05-04 02:27 | 42.65318 | -72.37580 | 21593 ft | 395 kts | 97° |
| 2026-05-04 02:27 | 42.64865 | -72.33916 | 21170 ft | 392 kts | 97° |
| 2026-05-04 02:27 | 42.64418 | -72.30275 | 20758 ft | 389 kts | 97° |
| 2026-05-04 02:27 | 42.63994 | -72.26693 | 20500 ft | 381 kts | 96° |
| 2026-05-04 02:28 | 42.63591 | -72.23194 | 20095 ft | 379 kts | 96° |
| 2026-05-04 02:28 | 42.63190 | -72.19671 | 19704 ft | 376 kts | 96° |
| 2026-05-04 02:28 | 42.62791 | -72.16175 | 19299 ft | 374 kts | 96° |
| 2026-05-04 02:28 | 42.62392 | -72.12693 | 18907 ft | 372 kts | 96° |
| 2026-05-04 02:29 | 42.61990 | -72.09240 | 18531 ft | 370 kts | 96° |
| 2026-05-04 02:29 | 42.61586 | -72.05820 | 17882 ft | 365 kts | 96° |
| 2026-05-04 02:29 | 42.61182 | -72.02430 | 17325 ft | 361 kts | 96° |
| 2026-05-04 02:29 | 42.60771 | -71.99072 | 16933 ft | 360 kts | 96° |
| 2026-05-04 02:30 | 42.60353 | -71.95725 | 16519 ft | 359 kts | 96° |
| 2026-05-04 02:30 | 42.59932 | -71.92385 | 16113 ft | 358 kts | 96° |
| 2026-05-04 02:30 | 42.59512 | -71.89051 | 15703 ft | 358 kts | 96° |
| 2026-05-04 02:30 | 42.59096 | -71.85728 | 15358 ft | 356 kts | 96° |
| 2026-05-04 02:31 | 42.58683 | -71.82419 | 14993 ft | 354 kts | 96° |
| 2026-05-04 02:31 | 42.58237 | -71.79123 | 14553 ft | 355 kts | 98° |
| 2026-05-04 02:31 | 42.57736 | -71.75864 | 14283 ft | 351 kts | 99° |
| 2026-05-04 02:31 | 42.57212 | -71.72632 | 13915 ft | 351 kts | 99° |
| 2026-05-04 02:32 | 42.56690 | -71.69449 | 13537 ft | 350 kts | 99° |
| 2026-05-04 02:32 | 42.56162 | -71.66233 | 13142 ft | 348 kts | 99° |
| 2026-05-04 02:32 | 42.55637 | -71.63033 | 12749 ft | 347 kts | 99° |
| 2026-05-04 02:32 | 42.55120 | -71.59836 | 12365 ft | 345 kts | 99° |
| 2026-05-04 02:33 | 42.54565 | -71.56676 | 11990 ft | 345 kts | 102° |
| 2026-05-04 02:33 | 42.53939 | -71.53541 | 11635 ft | 343 kts | 103° |
| 2026-05-04 02:33 | 42.53279 | -71.50439 | 11257 ft | 341 kts | 104° |
| 2026-05-04 02:33 | 42.52612 | -71.47359 | 10881 ft | 340 kts | 104° |
| 2026-05-04 02:34 | 42.51945 | -71.44274 | 10477 ft | 339 kts | 104° |
| 2026-05-04 02:34 | 42.51292 | -71.41215 | 10166 ft | 335 kts | 104° |
| 2026-05-04 02:34 | 42.50658 | -71.38208 | 10013 ft | 331 kts | 103° |
| 2026-05-04 02:34 | 42.50033 | -71.35210 | 9878 ft | 332 kts | 103° |
| 2026-05-04 02:35 | 42.49435 | -71.32246 | 9522 ft | 329 kts | 103° |
| 2026-05-04 02:35 | 42.48845 | -71.29260 | 9220 ft | 327 kts | 103° |
| 2026-05-04 02:35 | 42.48261 | -71.26295 | 8924 ft | 324 kts | 103° |
| 2026-05-04 02:35 | 42.47679 | -71.23360 | 8631 ft | 322 kts | 103° |
| 2026-05-04 02:36 | 42.47097 | -71.20442 | 8341 ft | 319 kts | 103° |
| 2026-05-04 02:36 | 42.46516 | -71.17555 | 8047 ft | 317 kts | 103° |
| 2026-05-04 02:36 | 42.46034 | -71.14670 | 7760 ft | 312 kts | 94° |
| 2026-05-04 02:36 | 42.45778 | -71.11764 | 7482 ft | 310 kts | 94° |
| 2026-05-04 02:37 | 42.45521 | -71.08890 | 7228 ft | 304 kts | 94° |
| 2026-05-04 02:37 | 42.45267 | -71.06105 | 7101 ft | 291 kts | 94° |
| 2026-05-04 02:37 | 42.45021 | -71.03431 | 6967 ft | 280 kts | 94° |
| 2026-05-04 02:37 | 42.44754 | -71.00842 | 6697 ft | 276 kts | 96° |
| 2026-05-04 02:38 | 42.44435 | -70.98309 | 6519 ft | 270 kts | 98° |
| 2026-05-04 02:38 | 42.44269 | -70.95827 | 6396 ft | 266 kts | 84° |
| 2026-05-04 02:38 | 42.44527 | -70.93374 | 6268 ft | 262 kts | 73° |
| 2026-05-04 02:38 | 42.44895 | -70.90955 | 6136 ft | 262 kts | 73° |
| 2026-05-04 02:39 | 42.45265 | -70.88550 | 6011 ft | 258 kts | 73° |
| 2026-05-04 02:39 | 42.45625 | -70.86219 | 5883 ft | 251 kts | 73° |
| 2026-05-04 02:39 | 42.45983 | -70.83900 | 5703 ft | 252 kts | 73° |
| 2026-05-04 02:39 | 42.46335 | -70.81568 | 5471 ft | 253 kts | 73° |
| 2026-05-04 02:40 | 42.46680 | -70.79242 | 5209 ft | 251 kts | 74° |
| 2026-05-04 02:40 | 42.47020 | -70.76933 | 4952 ft | 249 kts | 75° |
| 2026-05-04 02:40 | 42.47354 | -70.74635 | 4689 ft | 248 kts | 75° |
| 2026-05-04 02:40 | 42.47672 | -70.72335 | 4421 ft | 248 kts | 81° |
| 2026-05-04 02:41 | 42.47448 | -70.70037 | 4146 ft | 249 kts | 114° |
| 2026-05-04 02:41 | 42.46399 | -70.68246 | 4004 ft | 244 kts | 147° |
| 2026-05-04 02:41 | 42.44895 | -70.67378 | 3985 ft | 236 kts | 177° |
| 2026-05-04 02:41 | 42.43306 | -70.67507 | 3993 ft | 225 kts | 205° |
| 2026-05-04 02:42 | 42.41984 | -70.68495 | 3987 ft | 210 kts | 229° |
| 2026-05-04 02:42 | 42.41153 | -70.69968 | 3989 ft | 187 kts | 251° |
| 2026-05-04 02:42 | 42.40785 | -70.71596 | 3988 ft | 179 kts | 262° |
| 2026-05-04 02:42 | 42.40501 | -70.73240 | 3870 ft | 179 kts | 262° |
| 2026-05-04 02:43 | 42.40216 | -70.74879 | 3660 ft | 179 kts | 261° |
| 2026-05-04 02:43 | 42.39931 | -70.76512 | 3429 ft | 178 kts | 261° |
| 2026-05-04 02:43 | 42.39646 | -70.78147 | 3196 ft | 179 kts | 261° |
| 2026-05-04 02:43 | 42.39360 | -70.79783 | 2947 ft | 179 kts | 261° |
| 2026-05-04 02:44 | 42.39073 | -70.81422 | 2681 ft | 179 kts | 260° |
| 2026-05-04 02:44 | 42.38786 | -70.83060 | 2453 ft | 179 kts | 259° |
| 2026-05-04 02:44 | 42.38507 | -70.84645 | 2223 ft | 167 kts | 259° |
| 2026-05-04 02:44 | 42.38250 | -70.86109 | 1975 ft | 156 kts | 260° |
| 2026-05-04 02:45 | 42.38004 | -70.87507 | 1766 ft | 146 kts | 259° |
| 2026-05-04 02:45 | 42.37778 | -70.88792 | 1571 ft | 136 kts | 259° |
| 2026-05-04 02:45 | 42.37565 | -70.90005 | 1410 ft | 133 kts | 259° |
| 2026-05-04 02:45 | 42.37353 | -70.91215 | 1215 ft | 131 kts | 258° |
| 2026-05-04 02:46 | 42.37146 | -70.92418 | 1047 ft | 131 kts | 258° |
| 2026-05-04 02:46 | 42.36936 | -70.93621 | 832 ft | 132 kts | 257° |
| 2026-05-04 02:46 | 42.36717 | -70.94826 | 662 ft | 133 kts | 257° |
| 2026-05-04 02:46 | 42.36501 | -70.96042 | 496 ft | 133 kts | 257° |
| 2026-05-04 02:47 | 42.36287 | -70.97258 | 295 ft | 132 kts | 256° |
| 2026-05-04 02:47 | 42.36073 | -70.98465 | 115 ft | 132 kts | 257° |
| 2026-05-04 02:47 | 42.35870 | -70.99640 | 26 ft | 116 kts | 256° |
| 2026-05-04 02:47 | 42.35748 | -71.00327 | 25 ft | 34 kts | 256° |
| 2026-05-04 02:48 | 42.35695 | -71.00628 | 25 ft | 32 kts | 257° |
| 2026-05-04 02:48 | 42.35644 | -71.00913 | 27 ft | 30 kts | 257° |
| 2026-05-04 02:48 | 42.35647 | -71.01110 | 29 ft | 15 kts | 287° |
| 2026-05-04 02:48 | 42.35707 | -71.01237 | 28 ft | 17 kts | 307° |
| 2026-05-04 02:49 | 42.35762 | -71.01386 | 25 ft | 19 kts | 289° |
| 2026-05-04 02:49 | 42.35807 | -71.01556 | 27 ft | 20 kts | 289° |
| 2026-05-04 02:49 | 42.35836 | -71.01728 | 29 ft | 19 kts | 281° |
| 2026-05-04 02:49 | 42.35877 | -71.01907 | 25 ft | 21 kts | 298° |
| 2026-05-04 02:50 | 42.35955 | -71.02082 | 27 ft | 22 kts | 301° |
| 2026-05-04 02:50 | 42.36032 | -71.02255 | 28 ft | 14 kts | 301° |
| 2026-05-04 02:50 | 42.36106 | -71.02317 | 30 ft | 13 kts | 6° |
| 2026-05-04 02:50 | 42.36187 | -71.02276 | 27 ft | 12 kts | 22° |
| 2026-05-04 02:51 | 42.36256 | -71.02229 | 29 ft | 10 kts | 44° |
| 2026-05-04 02:51 | 42.36279 | -71.02145 | 27 ft | 9 kts | 76° |
| 2026-05-04 02:51 | 42.36261 | -71.02097 | 25 ft | 6 kts | 167° |
| 2026-05-04 02:51 | 42.36226 | -71.02094 | 28 ft | 4 kts | 177° |
| 2026-05-04 02:52 | 42.36222 | -71.02094 | 28 ft | 0 kts | 177° |